Aérodrome :







RETROUVEZ-NOUS SUR...

 
LOGIN :

S'inscrire | Disclaimer

   EN    FR    IT 

 









Légende :    VFR   VFR Marginal   IFR   IFR Intensif   IFR Très Intensif
Visi : 
Plafond : 
>= 8 km
>= 3000ft
5 à 8 km
1000 à 3000 ft
1500m à 5 km
500 à 1000 ft
800 à 1500m
200 à 500 ft
< 800m
< 200 ft
Symboles :   Orages  Brouillard  Fortes neiges  Fortes précipitations  Vent > 20 kt






- Altitude de l'aérodrome : 266 ft
- Code IATA : MHT


KMHT - Manchester

DERNIER METAR :
  • 131353Z 29013G19KT 10SM CLR M07/M18 A3017 RMK AO2 SLP237 T10721183

METARs EXPIRÉS :
  • 131253Z 29013G23KT 10SM CLR M08/M19 A3014 RMK AO2 SLP230 T10831189
  • 131153Z 32011G18KT 10SM CLR M09/M18 A3011 RMK AO2 SLP218 T10891183 11067 21089 51024

TAF KMHT
Valide du 13 à 12h jusqu'au 14 à 12h UTC


131120Z 1312/1412 31009G21KT P6SM SKC
FM140600 00000KT P6SM OVC250



MET'MAP, la Météo Aéronautique d'un coup d'oeil ! - Copyright ORBIFLY Décembre 2007 - Disclaimer

ORBIFLY MET'MAP TEAM :

Programmation & Développement : Alexandra Zaïnal
Conception & Développement : Baudouin d'Aumeries
Co-Programmation & Développement : Marc-Olivier Méhu
Soutien technique & logistique : Manuel Goepfert

Contact : metmap@orbifly.com




SOURCES & CREDITS :

   NOAA